Terminal Aerodrome Forecast
Issued by NWS

Home | Current Version | Previous Version | Text Only | Print | Product List | Glossary On
Versions: 1 2 3 4 5 6 7 8 9 10 11 12 13 14 15 16 17 18
000
FTUS43 KGRB 062300
TAFCWA
TAF
KCWA 062330Z 0700/0724 14007KT P6SM SCT050 BKN150
     FM070200 12008KT P6SM BKN070 OVC100
     FM070600 14006KT 5SM BR BKN090 WS018/20035KT
     FM071500 18016G25KT P6SM SCT040 BKN150
     FM072100 19016G25KT P6SM VCSH BKN040 OVC070
      AMD LTD TO CLD VIS AND WIND 0703/0711=

USA.gov is the U.S. government's official web portal to all federal, state and local government web resources and services.